createdAt,value
2022-10-09T00:01:03.406Z,6.11
2022-10-09T00:03:31.502Z,6.27
2022-10-09T00:05:59.405Z,5.84
2022-10-09T00:08:27.509Z,5.39
2022-10-09T00:10:55.771Z,6.04
2022-10-09T00:13:23.754Z,6.38
2022-10-09T00:15:53.367Z,6.42
2022-10-09T00:18:21.248Z,6.29
2022-10-09T00:20:49.193Z,6.17
2022-10-09T00:23:18.438Z,5.78
2022-10-09T00:25:54.379Z,5.60
2022-10-09T00:28:22.972Z,5.90
2022-10-09T00:30:51.626Z,6.17
2022-10-09T00:33:21.699Z,6.23
2022-10-09T00:35:50.458Z,5.70
2022-10-09T00:38:18.441Z,5.22
2022-10-09T00:40:46.399Z,5.42
2022-10-09T00:43:18.353Z,5.95
2022-10-09T00:45:51.270Z,6.08
2022-10-09T00:48:21.720Z,5.93
2022-10-09T00:50:53.895Z,5.89
2022-10-09T00:53:25.683Z,5.34
2022-10-09T00:55:54.155Z,5.63
2022-10-09T00:58:22.955Z,5.79
2022-10-09T01:00:51.125Z,5.92
2022-10-09T01:03:20.511Z,5.98
2022-10-09T01:05:59.657Z,6.07
2022-10-09T01:08:32.012Z,6.09
2022-10-09T01:11:08.587Z,5.86
2022-10-09T01:13:44.029Z,5.65
2022-10-09T01:16:23.868Z,5.82
2022-10-09T01:18:59.406Z,5.67
2022-10-09T01:21:33.088Z,5.78
2022-10-09T01:24:16.103Z,5.49
2022-10-09T01:27:04.416Z,5.88
2022-10-09T01:29:37.325Z,5.58
2022-10-09T01:32:06.775Z,5.59
2022-10-09T01:34:34.975Z,5.29
2022-10-09T01:37:04.589Z,5.46
2022-10-09T01:39:35.202Z,5.57
2022-10-09T01:42:05.843Z,5.39
2022-10-09T01:44:34.752Z,5.34
2022-10-09T01:47:04.566Z,5.56
2022-10-09T01:49:40.643Z,5.49
2022-10-09T01:52:18.116Z,5.38
2022-10-09T01:54:57.245Z,5.19
2022-10-09T01:57:34.018Z,5.34
2022-10-09T02:00:05.213Z,5.02
2022-10-09T02:02:42.093Z,5.38
2022-10-09T02:05:12.475Z,5.54
2022-10-09T02:07:41.057Z,5.28
2022-10-09T02:10:10.462Z,5.43
2022-10-09T02:12:44.522Z,5.46
2022-10-09T02:15:13.376Z,5.47
2022-10-09T02:17:47.579Z,5.48
2022-10-09T02:20:21.724Z,5.64
2022-10-09T02:22:50.751Z,5.40
2022-10-09T02:25:19.873Z,5.45
2022-10-09T02:27:49.352Z,5.63
2022-10-09T02:30:19.081Z,5.13
2022-10-09T02:32:47.263Z,5.51
2022-10-09T02:35:15.508Z,5.44
2022-10-09T02:37:43.375Z,5.36
2022-10-09T02:40:12.316Z,5.30
2022-10-09T02:42:40.211Z,4.95
2022-10-09T02:45:11.119Z,4.86
2022-10-09T02:47:38.987Z,4.81
2022-10-09T02:50:08.191Z,4.95
2022-10-09T02:52:36.135Z,4.78
2022-10-09T02:55:04.283Z,4.97
2022-10-09T02:57:32.237Z,4.86
2022-10-09T03:00:00.020Z,4.53
2022-10-09T03:02:29.494Z,4.94
2022-10-09T03:04:57.381Z,4.87
2022-10-09T03:07:25.216Z,4.81
2022-10-09T03:09:53.101Z,4.96
2022-10-09T03:12:22.118Z,5.19
2022-10-09T03:14:50.035Z,4.99
2022-10-09T03:17:17.827Z,4.92
2022-10-09T03:19:47.008Z,5.02
2022-10-09T03:22:14.757Z,5.13
2022-10-09T03:24:42.520Z,5.44
2022-10-09T03:27:10.255Z,5.12
2022-10-09T03:29:38.020Z,5.12
2022-10-09T03:32:05.829Z,5.06
2022-10-09T03:34:33.698Z,4.99
2022-10-09T03:37:02.862Z,4.82
2022-10-09T03:39:30.772Z,5.06
2022-10-09T03:41:58.939Z,5.13
2022-10-09T03:44:26.677Z,4.83
2022-10-09T03:46:55.237Z,4.74
2022-10-09T03:49:23.118Z,4.87
2022-10-09T03:51:50.988Z,5.16
2022-10-09T03:54:20.193Z,5.38
2022-10-09T03:56:48.038Z,5.52
2022-10-09T03:59:15.876Z,5.64
2022-10-09T04:01:43.733Z,5.39
2022-10-09T04:04:11.494Z,5.27
2022-10-09T04:06:39.376Z,5.46
2022-10-09T04:09:07.180Z,5.79
2022-10-09T04:11:36.350Z,5.80
2022-10-09T04:14:04.820Z,5.72
2022-10-09T04:16:32.657Z,5.71
2022-10-09T04:19:00.517Z,5.74
2022-10-09T04:21:28.344Z,5.59
2022-10-09T04:23:56.130Z,5.54
2022-10-09T04:26:24.316Z,5.46
2022-10-09T04:28:53.704Z,5.47
2022-10-09T04:31:21.635Z,5.50
2022-10-09T04:33:49.479Z,5.55
2022-10-09T04:36:17.260Z,5.69
2022-10-09T04:38:45.060Z,5.70
2022-10-09T04:41:13.035Z,5.58
2022-10-09T04:43:40.878Z,5.60
2022-10-09T04:46:13.030Z,5.60
2022-10-09T04:48:41.919Z,5.00
2022-10-09T04:51:10.464Z,4.99
2022-10-09T04:53:39.160Z,4.61
2022-10-09T04:56:09.962Z,5.14
2022-10-09T04:58:40.551Z,5.46
2022-10-09T05:01:11.460Z,5.62
2022-10-09T05:03:39.512Z,5.70
2022-10-09T05:06:09.853Z,5.87
2022-10-09T05:08:38.685Z,5.81
2022-10-09T05:11:08.373Z,5.61
2022-10-09T05:13:38.418Z,5.10
2022-10-09T05:16:08.658Z,4.99
2022-10-09T05:18:43.075Z,5.04
2022-10-09T05:21:11.279Z,5.20
2022-10-09T05:23:39.135Z,5.22
2022-10-09T05:26:09.438Z,5.29
2022-10-09T05:28:37.675Z,5.36
2022-10-09T05:31:06.967Z,5.20
2022-10-09T05:33:35.226Z,5.15
2022-10-09T05:36:06.286Z,4.84
2022-10-09T05:38:34.992Z,4.76
2022-10-09T05:41:05.284Z,4.59
2022-10-09T05:43:35.891Z,4.71
2022-10-09T05:46:08.642Z,4.97
2022-10-09T05:48:37.069Z,5.24
2022-10-09T05:51:11.545Z,4.85
2022-10-09T05:53:40.024Z,5.16
2022-10-09T05:56:16.298Z,4.78
2022-10-09T05:58:45.463Z,5.39
2022-10-09T06:01:13.291Z,5.09
2022-10-09T06:03:41.422Z,4.94
2022-10-09T06:06:10.811Z,5.26
2022-10-09T06:08:39.426Z,5.00
2022-10-09T06:11:11.969Z,4.86
2022-10-09T06:13:39.959Z,4.57
2022-10-09T06:16:08.638Z,4.96
2022-10-09T06:18:36.501Z,4.83
2022-10-09T06:21:04.870Z,5.18
2022-10-09T06:23:34.814Z,4.75
2022-10-09T06:26:06.146Z,4.95
2022-10-09T06:28:35.286Z,4.99
2022-10-09T06:31:04.001Z,5.04
2022-10-09T06:33:33.269Z,4.80
2022-10-09T06:36:09.828Z,5.53
2022-10-09T06:38:40.172Z,5.30
2022-10-09T06:41:09.987Z,5.65
2022-10-09T06:43:38.426Z,5.62
2022-10-09T06:46:08.196Z,5.80
2022-10-09T06:48:38.426Z,5.90
2022-10-09T06:51:08.470Z,5.35
2022-10-09T06:53:37.430Z,5.46
2022-10-09T06:56:08.628Z,5.98
2022-10-09T06:58:36.572Z,5.13
2022-10-09T07:01:06.521Z,5.67
2022-10-09T07:03:34.741Z,5.60
2022-10-09T07:06:10.766Z,5.85
2022-10-09T07:08:39.347Z,5.82
2022-10-09T07:11:13.300Z,5.41
2022-10-09T07:13:41.855Z,5.62
2022-10-09T07:16:10.581Z,5.72
2022-10-09T07:18:39.322Z,5.74
2022-10-09T07:21:09.520Z,5.69
2022-10-09T07:23:37.811Z,5.51
2022-10-09T07:26:12.951Z,5.79
2022-10-09T07:28:41.577Z,5.85
2022-10-09T07:31:10.042Z,6.46
2022-10-09T07:33:38.347Z,6.80
2022-10-09T07:36:07.876Z,6.54
2022-10-09T07:38:35.869Z,5.96
2022-10-09T07:41:06.912Z,6.58
2022-10-09T07:43:37.974Z,7.13
2022-10-09T07:46:07.784Z,6.81
2022-10-09T07:48:36.380Z,7.43
2022-10-09T07:51:09.941Z,6.89
2022-10-09T07:53:38.769Z,7.11
2022-10-09T07:56:07.716Z,6.52
2022-10-09T07:58:36.873Z,7.30
2022-10-09T08:01:06.111Z,8.07
2022-10-09T08:03:35.179Z,7.70
2022-10-09T08:06:03.523Z,7.65
2022-10-09T08:08:31.427Z,7.92
2022-10-09T08:10:59.299Z,8.65
2022-10-09T08:13:27.148Z,8.59
2022-10-09T08:15:59.464Z,8.11
2022-10-09T08:18:27.479Z,8.42
2022-10-09T08:20:59.786Z,8.73
2022-10-09T08:23:28.043Z,8.22
2022-10-09T08:25:56.201Z,7.97
2022-10-09T08:28:24.487Z,7.88
2022-10-09T08:30:52.612Z,7.76
2022-10-09T08:33:23.451Z,8.11
2022-10-09T08:35:51.880Z,8.48
2022-10-09T08:38:45.058Z,8.78
2022-10-09T08:41:12.632Z,8.94
2022-10-09T08:43:46.341Z,9.35
2022-10-09T08:46:21.736Z,9.54
2022-10-09T08:48:53.388Z,9.48
2022-10-09T08:51:25.291Z,9.52
2022-10-09T08:54:00.645Z,10.02
2022-10-09T08:56:31.399Z,10.07
2022-10-09T08:58:59.986Z,10.36
2022-10-09T09:01:37.369Z,10.43
2022-10-09T09:04:42.189Z,10.63
2022-10-09T09:07:20.708Z,10.90
2022-10-09T09:09:57.762Z,11.05
2022-10-09T09:12:34.144Z,10.79
2022-10-09T09:15:19.513Z,10.89
2022-10-09T09:17:55.961Z,11.04
2022-10-09T09:20:28.605Z,11.28
2022-10-09T09:34:35.713Z,11.20
2022-10-09T09:37:03.707Z,11.96
2022-10-09T09:42:24.366Z,11.86
2022-10-09T09:44:59.579Z,11.77
2022-10-09T09:47:34.189Z,12.34
2022-10-09T09:50:06.194Z,12.61
2022-10-09T09:52:37.590Z,12.59
2022-10-09T09:55:06.924Z,12.76
2022-10-09T09:57:37.746Z,13.19
2022-10-09T10:00:20.944Z,13.63
2022-10-09T10:02:49.433Z,13.52
2022-10-09T10:05:23.927Z,13.79
2022-10-09T10:07:51.953Z,14.21
2022-10-09T10:10:25.328Z,13.81
2022-10-09T10:12:57.569Z,13.41
2022-10-09T10:15:28.248Z,14.10
2022-10-09T10:18:00.809Z,14.18
2022-10-09T10:20:32.601Z,14.47
2022-10-09T10:23:01.819Z,14.62
2022-10-09T10:25:34.500Z,14.85
2022-10-09T10:28:07.232Z,15.37
2022-10-09T10:30:38.716Z,15.67
2022-10-09T10:33:14.235Z,16.38
2022-10-09T10:35:44.955Z,17.17
2022-10-09T10:38:16.460Z,16.98
2022-10-09T10:40:49.093Z,16.68
2022-10-09T10:43:29.617Z,17.70
2022-10-09T10:46:01.032Z,18.51
2022-10-09T10:48:31.838Z,18.29
2022-10-09T10:51:09.632Z,17.90
2022-10-09T10:53:59.393Z,17.82
2022-10-09T10:56:32.052Z,17.79
2022-10-09T10:59:20.244Z,18.87
2022-10-09T11:01:55.015Z,18.64
2022-10-09T11:04:40.274Z,19.17
2022-10-09T11:07:21.238Z,18.84
2022-10-09T11:09:58.764Z,19.01
2022-10-09T11:12:47.898Z,19.43
2022-10-09T11:15:21.259Z,19.20
2022-10-09T11:17:56.118Z,19.45
2022-10-09T11:20:59.298Z,19.49
2022-10-09T11:23:40.930Z,19.38
2022-10-09T11:26:18.444Z,19.42
2022-10-09T11:28:53.117Z,19.42
2022-10-09T11:31:28.166Z,19.48
2022-10-09T11:34:01.691Z,19.02
2022-10-09T11:36:35.310Z,18.82
2022-10-09T11:39:07.199Z,18.13
2022-10-09T11:41:37.026Z,18.59
2022-10-09T11:44:25.597Z,19.12
2022-10-09T11:47:02.200Z,18.62
2022-10-09T11:49:38.801Z,18.84
2022-10-09T11:52:17.526Z,18.96
2022-10-09T11:54:46.803Z,19.18
2022-10-09T11:57:15.656Z,18.18
2022-10-09T11:59:43.633Z,18.40
2022-10-09T12:02:25.353Z,18.21
2022-10-09T12:04:55.136Z,18.62
2022-10-09T12:07:29.288Z,18.78
2022-10-09T12:10:06.182Z,18.14
2022-10-09T12:12:37.763Z,18.44
2022-10-09T12:15:24.311Z,18.30
2022-10-09T12:17:52.264Z,18.95
2022-10-09T12:20:22.391Z,19.06
2022-10-09T12:23:14.233Z,19.04
2022-10-09T12:25:46.843Z,18.73
2022-10-09T12:28:26.962Z,18.79
2022-10-09T12:30:56.571Z,18.86
2022-10-09T12:33:27.285Z,18.64
2022-10-09T12:36:06.310Z,18.31
2022-10-09T12:38:34.190Z,19.15
2022-10-09T12:41:07.015Z,18.65
2022-10-09T12:43:36.423Z,18.96
2022-10-09T12:46:05.169Z,19.03
2022-10-09T12:48:39.833Z,18.84
2022-10-09T12:51:16.241Z,19.24
2022-10-09T12:53:48.227Z,19.19
2022-10-09T12:56:22.372Z,19.90
2022-10-09T12:58:50.674Z,19.88
2022-10-09T13:01:19.112Z,20.04
2022-10-09T13:03:55.447Z,20.25
2022-10-09T13:06:25.803Z,20.59
2022-10-09T13:08:55.082Z,19.75
2022-10-09T13:11:32.423Z,19.95
2022-10-09T13:14:00.871Z,19.09
2022-10-09T13:16:40.719Z,19.45
2022-10-09T13:19:25.377Z,19.27
2022-10-09T13:22:20.884Z,19.60
2022-10-09T13:24:53.073Z,19.14
2022-10-09T13:27:26.270Z,20.05
2022-10-09T13:29:54.651Z,19.43
2022-10-09T13:32:24.196Z,19.49
2022-10-09T13:34:54.979Z,19.81
2022-10-09T13:37:24.539Z,19.40
2022-10-09T13:39:53.427Z,19.34
2022-10-09T13:42:25.154Z,19.94
2022-10-09T13:44:53.120Z,19.57
2022-10-09T13:47:24.437Z,20.19
2022-10-09T13:49:52.779Z,20.40
2022-10-09T13:52:20.698Z,19.99
2022-10-09T13:54:48.557Z,19.87
2022-10-09T13:57:16.403Z,20.30
2022-10-09T13:59:45.729Z,20.05
2022-10-09T14:02:13.889Z,19.25
2022-10-09T14:04:42.044Z,19.28
2022-10-09T14:07:10.000Z,19.08
2022-10-09T14:09:38.045Z,19.13
2022-10-09T14:12:05.977Z,19.52
2022-10-09T14:14:33.929Z,19.75
2022-10-09T14:17:03.136Z,19.84
2022-10-09T14:19:30.987Z,19.60
2022-10-09T14:21:59.486Z,19.28
2022-10-09T14:24:27.404Z,19.10
2022-10-09T14:26:55.267Z,19.20
2022-10-09T14:29:23.205Z,19.28
2022-10-09T14:31:51.346Z,19.67
2022-10-09T14:34:20.719Z,19.36
2022-10-09T14:36:48.880Z,19.45
2022-10-09T14:39:17.155Z,19.37
2022-10-09T14:41:45.835Z,19.00
2022-10-09T14:44:13.919Z,19.05
2022-10-09T14:46:41.838Z,19.22
2022-10-09T14:49:09.712Z,19.03
2022-10-09T14:51:40.421Z,18.83
2022-10-09T14:54:09.781Z,19.00
2022-10-09T14:56:37.834Z,19.03
2022-10-09T14:59:06.374Z,18.75
2022-10-09T15:01:35.382Z,18.47
2022-10-09T15:04:04.274Z,18.71
2022-10-09T15:06:32.268Z,19.03
2022-10-09T15:09:05.390Z,18.70
2022-10-09T15:11:34.785Z,18.71
2022-10-09T15:14:02.915Z,18.67
2022-10-09T15:16:31.072Z,18.24
2022-10-09T15:18:59.139Z,18.54
2022-10-09T15:21:29.240Z,18.02
2022-10-09T15:23:58.869Z,18.35
2022-10-09T15:26:29.645Z,18.08
2022-10-09T15:28:57.837Z,17.90
2022-10-09T15:31:27.883Z,17.88
2022-10-09T15:33:57.404Z,17.90
2022-10-09T15:36:26.170Z,18.07
2022-10-09T15:38:54.205Z,17.72
2022-10-09T15:41:25.031Z,17.72
2022-10-09T15:43:56.521Z,17.83
2022-10-09T15:46:25.163Z,17.45
2022-10-09T15:48:53.496Z,17.34
2022-10-09T15:51:22.351Z,17.33
2022-10-09T15:53:52.156Z,17.12
2022-10-09T15:56:22.410Z,17.09
2022-10-09T15:58:51.066Z,16.81
2022-10-09T16:01:21.438Z,16.60
2022-10-09T16:03:49.693Z,16.52
2022-10-09T16:06:20.358Z,16.44
2022-10-09T16:08:48.887Z,16.49
2022-10-09T16:11:21.783Z,16.26
2022-10-09T16:13:53.147Z,16.30
2022-10-09T16:16:25.047Z,16.13
2022-10-09T16:18:53.425Z,16.04
2022-10-09T16:21:23.993Z,15.80
2022-10-09T16:23:57.297Z,15.66
2022-10-09T16:26:25.440Z,15.82
2022-10-09T16:28:53.380Z,15.73
2022-10-09T16:31:24.706Z,15.81
2022-10-09T16:33:52.794Z,15.59
2022-10-09T16:36:20.640Z,15.74
2022-10-09T16:38:48.842Z,15.75
2022-10-09T16:41:19.644Z,15.46
2022-10-09T16:43:48.994Z,15.20
2022-10-09T16:46:20.092Z,15.34
2022-10-09T16:48:50.352Z,15.38
2022-10-09T16:51:21.911Z,14.90
2022-10-09T16:53:50.633Z,14.82
2022-10-09T16:56:21.125Z,14.47
2022-10-09T16:58:48.864Z,14.25
2022-10-09T17:01:17.395Z,13.82
2022-10-09T17:03:45.410Z,13.80
2022-10-09T17:06:19.626Z,13.68
2022-10-09T17:08:47.600Z,13.63
2022-10-09T17:11:17.423Z,13.43
2022-10-09T17:13:45.798Z,13.50
2022-10-09T17:16:18.270Z,13.17
2022-10-09T17:18:46.859Z,13.16
2022-10-09T17:21:17.986Z,12.96
2022-10-09T17:23:46.733Z,12.90
2022-10-09T17:26:16.816Z,12.88
2022-10-09T17:28:45.664Z,12.79
2022-10-09T17:31:16.847Z,12.64
2022-10-09T17:33:48.174Z,12.59
2022-10-09T17:36:20.681Z,12.50
2022-10-09T17:38:49.785Z,12.39
2022-10-09T17:41:19.565Z,12.35
2022-10-09T17:43:47.424Z,12.13
2022-10-09T17:46:16.024Z,12.29
2022-10-09T17:48:48.301Z,12.11
2022-10-09T17:51:19.895Z,11.78
2022-10-09T17:53:48.110Z,12.03
2022-10-09T17:56:16.533Z,11.90
2022-10-09T17:58:47.320Z,11.79
2022-10-09T18:01:16.314Z,11.76
2022-10-09T18:03:44.995Z,11.78
2022-10-09T18:06:14.558Z,11.71
2022-10-09T18:08:44.471Z,11.48
2022-10-09T18:11:14.782Z,11.36
2022-10-09T18:13:43.415Z,11.32
2022-10-09T18:16:14.440Z,11.35
2022-10-09T18:18:42.420Z,11.36
2022-10-09T18:21:16.860Z,11.16
2022-10-09T18:23:46.747Z,11.16
2022-10-09T18:26:17.101Z,11.25
2022-10-09T18:28:48.208Z,11.10
2022-10-09T18:31:19.181Z,11.04
2022-10-09T18:33:47.576Z,10.98
2022-10-09T18:36:19.853Z,10.89
2022-10-09T18:38:50.988Z,10.55
2022-10-09T18:41:20.271Z,10.83
2022-10-09T18:43:48.891Z,10.49
2022-10-09T18:46:18.690Z,10.66
2022-10-09T18:48:47.184Z,10.57
2022-10-09T18:51:17.505Z,10.65
2022-10-09T18:53:52.633Z,10.58
2022-10-09T18:56:22.276Z,10.51
2022-10-09T18:58:51.955Z,10.36
2022-10-09T19:01:20.171Z,10.46
2022-10-09T19:03:50.103Z,10.31
2022-10-09T19:06:18.681Z,10.05
2022-10-09T19:08:47.359Z,10.26
2022-10-09T19:11:16.882Z,10.27
2022-10-09T19:13:45.718Z,10.00
2022-10-09T19:16:13.692Z,10.07
2022-10-09T19:18:41.601Z,10.18
2022-10-09T19:21:13.382Z,10.00
2022-10-09T19:23:41.312Z,9.84
2022-10-09T19:26:09.214Z,10.06
2022-10-09T19:28:39.285Z,9.81
2022-10-09T19:31:08.566Z,9.65
2022-10-09T19:33:37.818Z,9.73
2022-10-09T19:36:06.541Z,9.59
2022-10-09T19:38:34.495Z,9.41
2022-10-09T19:41:04.961Z,9.48
2022-10-09T19:43:32.970Z,9.46
2022-10-09T19:46:07.852Z,9.34
2022-10-09T19:48:36.404Z,9.49
2022-10-09T19:51:07.406Z,9.31
2022-10-09T19:53:35.849Z,9.17
2022-10-09T19:56:09.336Z,9.18
2022-10-09T19:58:40.563Z,9.27
2022-10-09T20:01:10.994Z,9.43
2022-10-09T20:03:38.795Z,9.42
2022-10-09T20:06:08.550Z,9.16
2022-10-09T20:08:36.560Z,9.05
2022-10-09T20:11:06.728Z,9.25
2022-10-09T20:13:37.639Z,9.05
2022-10-09T20:16:08.425Z,9.03
2022-10-09T20:18:39.428Z,9.10
2022-10-09T20:21:07.473Z,9.15
2022-10-09T20:23:35.318Z,9.12
2022-10-09T20:26:05.596Z,9.32
2022-10-09T20:28:34.589Z,9.18
2022-10-09T20:31:06.387Z,9.17
2022-10-09T20:33:34.780Z,8.92
2022-10-09T20:36:04.966Z,8.30
2022-10-09T20:38:32.875Z,8.17
2022-10-09T20:41:04.683Z,7.89
2022-10-09T20:43:32.473Z,8.14
2022-10-09T20:46:00.318Z,8.44
2022-10-09T20:48:28.165Z,7.92
2022-10-09T20:50:56.017Z,8.39
2022-10-09T20:53:25.188Z,8.47
2022-10-09T20:55:53.066Z,8.47
2022-10-09T20:58:20.880Z,8.66
2022-10-09T21:00:48.702Z,8.86
2022-10-09T21:03:16.656Z,8.70
2022-10-09T21:05:44.888Z,9.15
2022-10-09T21:08:12.793Z,9.00
2022-10-09T21:10:45.018Z,9.13
2022-10-09T21:13:13.256Z,9.40
2022-10-09T21:15:44.965Z,9.21
2022-10-09T21:18:13.420Z,9.42
2022-10-09T21:20:43.770Z,9.51
2022-10-09T21:23:13.591Z,9.06
2022-10-09T21:25:49.911Z,9.43
2022-10-09T21:28:18.280Z,9.65
2022-10-09T21:30:46.210Z,9.78
2022-10-09T21:33:14.691Z,9.47
2022-10-09T21:35:44.890Z,9.68
2022-10-09T21:38:14.273Z,9.57
2022-10-09T21:40:42.894Z,9.75
2022-10-09T21:43:12.187Z,9.83
2022-10-09T21:45:41.263Z,9.99
2022-10-09T21:48:09.649Z,10.05
2022-10-09T21:50:37.581Z,9.61
2022-10-09T21:53:05.798Z,9.76
2022-10-09T21:55:33.771Z,9.71
2022-10-09T21:58:01.633Z,9.56
2022-10-09T22:00:31.035Z,9.79
2022-10-09T22:02:58.895Z,9.85
2022-10-09T22:05:26.795Z,10.00
2022-10-09T22:07:54.622Z,9.53
2022-10-09T22:10:22.489Z,9.62
2022-10-09T22:12:50.558Z,9.71
2022-10-09T22:15:18.664Z,10.00
2022-10-09T22:17:47.927Z,9.85
2022-10-09T22:20:15.744Z,9.85
2022-10-09T22:22:43.675Z,9.81
2022-10-09T22:25:11.778Z,9.57
2022-10-09T22:27:39.667Z,9.67
2022-10-09T22:30:09.059Z,9.93
2022-10-09T22:32:36.926Z,10.01
2022-10-09T22:35:06.947Z,10.24
2022-10-09T22:37:34.823Z,10.28
2022-10-09T22:40:02.910Z,10.30
2022-10-09T22:42:30.769Z,10.16
2022-10-09T22:44:58.632Z,10.24
2022-10-09T22:47:26.627Z,10.00
2022-10-09T22:49:54.418Z,10.28
2022-10-09T22:52:23.670Z,10.45
2022-10-09T22:54:51.526Z,10.42
2022-10-09T22:57:19.628Z,10.35
2022-10-09T22:59:47.690Z,10.37
2022-10-09T23:02:15.661Z,10.36
2022-10-09T23:04:43.514Z,10.05
2022-10-09T23:07:11.349Z,10.02
2022-10-09T23:09:40.909Z,10.11
2022-10-09T23:12:08.764Z,10.19
2022-10-09T23:14:36.696Z,9.97
2022-10-09T23:17:04.661Z,10.12
2022-10-09T23:19:33.932Z,9.97
2022-10-09T23:22:01.713Z,9.91
2022-10-09T23:24:29.736Z,9.73
2022-10-09T23:26:58.925Z,9.68
2022-10-09T23:29:26.784Z,9.58
2022-10-09T23:31:54.633Z,9.82
2022-10-09T23:34:22.512Z,9.54
2022-10-09T23:36:50.391Z,9.61
2022-10-09T23:39:18.260Z,9.44
2022-10-09T23:41:46.134Z,9.04
2022-10-09T23:44:17.812Z,8.86
2022-10-09T23:46:49.199Z,9.15
2022-10-09T23:49:17.210Z,9.01
2022-10-09T23:51:45.075Z,9.14
2022-10-09T23:54:12.932Z,9.27
2022-10-09T23:56:40.819Z,8.99
2022-10-09T23:59:08.688Z,9.04
